sensor_id;sensor_type;location;lat;lon;timestamp;temperature;humidity
57410;DHT22;46044;44.738;20.394;2022-07-06T00:00:55;21.00;94.00
57410;DHT22;46044;44.738;20.394;2022-07-06T00:03:21;21.00;94.00
57410;DHT22;46044;44.738;20.394;2022-07-06T00:05:46;21.00;94.00
57410;DHT22;46044;44.738;20.394;2022-07-06T00:08:12;21.00;94.00
57410;DHT22;46044;44.738;20.394;2022-07-06T00:10:39;21.00;94.00
57410;DHT22;46044;44.738;20.394;2022-07-06T00:13:05;21.00;94.00
57410;DHT22;46044;44.738;20.394;2022-07-06T00:15:30;21.00;94.00
57410;DHT22;46044;44.738;20.394;2022-07-06T00:17:56;21.00;94.00
57410;DHT22;46044;44.738;20.394;2022-07-06T00:20:23;21.00;94.00
57410;DHT22;46044;44.738;20.394;2022-07-06T00:22:48;21.00;94.00
57410;DHT22;46044;44.738;20.394;2022-07-06T00:25:14;21.00;94.00
57410;DHT22;46044;44.738;20.394;2022-07-06T00:27:41;21.00;94.00
57410;DHT22;46044;44.738;20.394;2022-07-06T00:30:07;21.00;94.00
57410;DHT22;46044;44.738;20.394;2022-07-06T00:32:33;21.00;94.00
57410;DHT22;46044;44.738;20.394;2022-07-06T00:34:58;21.00;94.00
57410;DHT22;46044;44.738;20.394;2022-07-06T00:37:24;21.00;94.00
57410;DHT22;46044;44.738;20.394;2022-07-06T00:39:51;21.00;94.00
57410;DHT22;46044;44.738;20.394;2022-07-06T00:42:16;21.00;94.00
57410;DHT22;46044;44.738;20.394;2022-07-06T00:44:42;21.00;94.00
57410;DHT22;46044;44.738;20.394;2022-07-06T00:47:08;21.00;94.00
57410;DHT22;46044;44.738;20.394;2022-07-06T00:49:34;21.00;94.00
57410;DHT22;46044;44.738;20.394;2022-07-06T00:52:18;21.00;94.00
57410;DHT22;46044;44.738;20.394;2022-07-06T00:54:45;21.00;94.00
57410;DHT22;46044;44.738;20.394;2022-07-06T00:57:11;21.00;94.00
57410;DHT22;46044;44.738;20.394;2022-07-06T00:59:37;21.00;94.00
57410;DHT22;46044;44.738;20.394;2022-07-06T01:02:03;21.00;94.00
57410;DHT22;46044;44.738;20.394;2022-07-06T01:04:29;21.00;94.00
57410;DHT22;46044;44.738;20.394;2022-07-06T01:06:56;21.00;94.00
57410;DHT22;46044;44.738;20.394;2022-07-06T01:09:22;21.00;94.00
57410;DHT22;46044;44.738;20.394;2022-07-06T01:11:48;21.00;94.00
57410;DHT22;46044;44.738;20.394;2022-07-06T01:14:14;21.00;94.00
57410;DHT22;46044;44.738;20.394;2022-07-06T01:16:40;21.00;94.00
57410;DHT22;46044;44.738;20.394;2022-07-06T01:19:06;21.00;94.00
57410;DHT22;46044;44.738;20.394;2022-07-06T01:21:32;21.00;94.00
57410;DHT22;46044;44.738;20.394;2022-07-06T01:23:57;21.00;94.00
57410;DHT22;46044;44.738;20.394;2022-07-06T01:26:23;21.00;94.00
57410;DHT22;46044;44.738;20.394;2022-07-06T01:28:51;21.00;94.00
57410;DHT22;46044;44.738;20.394;2022-07-06T01:31:26;21.00;94.00
57410;DHT22;46044;44.738;20.394;2022-07-06T01:33:54;21.00;94.00
57410;DHT22;46044;44.738;20.394;2022-07-06T01:36:20;21.00;94.00
57410;DHT22;46044;44.738;20.394;2022-07-06T01:38:53;21.00;94.00
57410;DHT22;46044;44.738;20.394;2022-07-06T01:41:19;21.00;94.00
57410;DHT22;46044;44.738;20.394;2022-07-06T01:43:45;22.00;95.00
57410;DHT22;46044;44.738;20.394;2022-07-06T01:46:12;21.00;94.00
57410;DHT22;46044;44.738;20.394;2022-07-06T01:48:38;21.00;94.00
57410;DHT22;46044;44.738;20.394;2022-07-06T01:51:04;22.00;95.00
57410;DHT22;46044;44.738;20.394;2022-07-06T01:53:30;22.00;95.00
57410;DHT22;46044;44.738;20.394;2022-07-06T01:55:56;22.00;95.00
57410;DHT22;46044;44.738;20.394;2022-07-06T01:58:22;21.00;94.00
57410;DHT22;46044;44.738;20.394;2022-07-06T02:00:47;22.00;95.00
57410;DHT22;46044;44.738;20.394;2022-07-06T02:03:13;22.00;95.00
57410;DHT22;46044;44.738;20.394;2022-07-06T02:05:39;21.00;94.00
57410;DHT22;46044;44.738;20.394;2022-07-06T02:08:05;22.00;95.00
57410;DHT22;46044;44.738;20.394;2022-07-06T02:10:30;21.00;94.00
57410;DHT22;46044;44.738;20.394;2022-07-06T02:12:56;21.00;94.00
57410;DHT22;46044;44.738;20.394;2022-07-06T02:15:22;22.00;95.00
57410;DHT22;46044;44.738;20.394;2022-07-06T02:17:47;22.00;95.00
57410;DHT22;46044;44.738;20.394;2022-07-06T02:20:13;21.00;94.00
57410;DHT22;46044;44.738;20.394;2022-07-06T02:22:39;22.00;95.00
57410;DHT22;46044;44.738;20.394;2022-07-06T02:25:05;22.00;95.00
57410;DHT22;46044;44.738;20.394;2022-07-06T02:27:31;22.00;95.00
57410;DHT22;46044;44.738;20.394;2022-07-06T02:29:56;22.00;95.00
57410;DHT22;46044;44.738;20.394;2022-07-06T02:32:22;22.00;95.00
57410;DHT22;46044;44.738;20.394;2022-07-06T02:34:48;22.00;95.00
57410;DHT22;46044;44.738;20.394;2022-07-06T02:37:14;22.00;95.00
57410;DHT22;46044;44.738;20.394;2022-07-06T02:39:39;22.00;95.00
57410;DHT22;46044;44.738;20.394;2022-07-06T02:42:05;22.00;95.00
57410;DHT22;46044;44.738;20.394;2022-07-06T02:44:31;22.00;95.00
57410;DHT22;46044;44.738;20.394;2022-07-06T02:46:57;21.00;94.00
57410;DHT22;46044;44.738;20.394;2022-07-06T02:49:23;21.00;94.00
57410;DHT22;46044;44.738;20.394;2022-07-06T02:51:48;21.00;94.00
57410;DHT22;46044;44.738;20.394;2022-07-06T02:54:14;22.00;95.00
57410;DHT22;46044;44.738;20.394;2022-07-06T02:56:39;22.00;95.00
57410;DHT22;46044;44.738;20.394;2022-07-06T02:59:05;22.00;95.00
57410;DHT22;46044;44.738;20.394;2022-07-06T03:01:31;21.00;94.00
57410;DHT22;46044;44.738;20.394;2022-07-06T03:03:56;22.00;95.00
57410;DHT22;46044;44.738;20.394;2022-07-06T03:06:22;21.00;94.00
57410;DHT22;46044;44.738;20.394;2022-07-06T03:08:48;21.00;94.00
57410;DHT22;46044;44.738;20.394;2022-07-06T03:11:13;21.00;94.00
57410;DHT22;46044;44.738;20.394;2022-07-06T03:13:39;21.00;94.00
57410;DHT22;46044;44.738;20.394;2022-07-06T03:16:05;21.00;94.00
57410;DHT22;46044;44.738;20.394;2022-07-06T03:18:30;21.00;94.00
57410;DHT22;46044;44.738;20.394;2022-07-06T03:20:56;21.00;94.00
57410;DHT22;46044;44.738;20.394;2022-07-06T03:23:22;21.00;94.00
57410;DHT22;46044;44.738;20.394;2022-07-06T03:25:47;21.00;94.00
57410;DHT22;46044;44.738;20.394;2022-07-06T03:28:13;21.00;94.00
57410;DHT22;46044;44.738;20.394;2022-07-06T03:30:39;21.00;94.00
57410;DHT22;46044;44.738;20.394;2022-07-06T03:33:04;21.00;94.00
57410;DHT22;46044;44.738;20.394;2022-07-06T03:35:30;21.00;94.00
57410;DHT22;46044;44.738;20.394;2022-07-06T03:37:56;21.00;94.00
57410;DHT22;46044;44.738;20.394;2022-07-06T03:40:22;21.00;94.00
57410;DHT22;46044;44.738;20.394;2022-07-06T03:42:48;21.00;94.00
57410;DHT22;46044;44.738;20.394;2022-07-06T03:45:14;21.00;94.00
57410;DHT22;46044;44.738;20.394;2022-07-06T03:47:40;21.00;94.00
57410;DHT22;46044;44.738;20.394;2022-07-06T03:50:07;21.00;94.00
57410;DHT22;46044;44.738;20.394;2022-07-06T03:52:34;21.00;94.00
57410;DHT22;46044;44.738;20.394;2022-07-06T03:55:01;21.00;94.00
57410;DHT22;46044;44.738;20.394;2022-07-06T03:57:27;21.00;94.00
57410;DHT22;46044;44.738;20.394;2022-07-06T03:59:52;21.00;94.00
57410;DHT22;46044;44.738;20.394;2022-07-06T04:02:18;21.00;94.00
57410;DHT22;46044;44.738;20.394;2022-07-06T04:04:44;21.00;94.00
57410;DHT22;46044;44.738;20.394;2022-07-06T04:07:09;21.00;94.00
57410;DHT22;46044;44.738;20.394;2022-07-06T04:09:35;21.00;94.00
57410;DHT22;46044;44.738;20.394;2022-07-06T04:12:04;21.00;94.00
57410;DHT22;46044;44.738;20.394;2022-07-06T04:14:29;21.00;94.00
57410;DHT22;46044;44.738;20.394;2022-07-06T04:16:55;21.00;94.00
57410;DHT22;46044;44.738;20.394;2022-07-06T04:19:21;21.00;94.00
57410;DHT22;46044;44.738;20.394;2022-07-06T04:21:46;21.00;94.00
57410;DHT22;46044;44.738;20.394;2022-07-06T04:24:12;21.00;94.00
57410;DHT22;46044;44.738;20.394;2022-07-06T04:26:38;21.00;94.00
57410;DHT22;46044;44.738;20.394;2022-07-06T04:29:04;21.00;94.00
57410;DHT22;46044;44.738;20.394;2022-07-06T04:31:29;21.00;94.00
57410;DHT22;46044;44.738;20.394;2022-07-06T04:33:55;21.00;94.00
57410;DHT22;46044;44.738;20.394;2022-07-06T04:36:21;21.00;94.00
57410;DHT22;46044;44.738;20.394;2022-07-06T04:38:46;21.00;94.00
57410;DHT22;46044;44.738;20.394;2022-07-06T04:41:13;21.00;94.00
57410;DHT22;46044;44.738;20.394;2022-07-06T04:43:38;21.00;94.00
57410;DHT22;46044;44.738;20.394;2022-07-06T04:46:04;21.00;94.00
57410;DHT22;46044;44.738;20.394;2022-07-06T04:48:31;21.00;94.00
57410;DHT22;46044;44.738;20.394;2022-07-06T04:50:58;21.00;94.00
57410;DHT22;46044;44.738;20.394;2022-07-06T04:53:24;21.00;94.00
57410;DHT22;46044;44.738;20.394;2022-07-06T04:55:49;21.00;94.00
57410;DHT22;46044;44.738;20.394;2022-07-06T04:58:15;21.00;93.00
57410;DHT22;46044;44.738;20.394;2022-07-06T05:00:40;22.00;93.00
57410;DHT22;46044;44.738;20.394;2022-07-06T05:03:06;22.00;91.00
57410;DHT22;46044;44.738;20.394;2022-07-06T05:05:32;22.00;91.00
57410;DHT22;46044;44.738;20.394;2022-07-06T05:07:57;23.00;91.00
57410;DHT22;46044;44.738;20.394;2022-07-06T05:10:23;23.00;89.00
57410;DHT22;46044;44.738;20.394;2022-07-06T05:12:49;23.00;87.00
57410;DHT22;46044;44.738;20.394;2022-07-06T05:15:16;23.00;86.00
57410;DHT22;46044;44.738;20.394;2022-07-06T05:17:41;23.00;87.00
57410;DHT22;46044;44.738;20.394;2022-07-06T05:20:07;23.00;89.00
57410;DHT22;46044;44.738;20.394;2022-07-06T05:22:33;23.00;89.00
57410;DHT22;46044;44.738;20.394;2022-07-06T05:24:59;23.00;90.00
57410;DHT22;46044;44.738;20.394;2022-07-06T05:27:24;23.00;90.00
57410;DHT22;46044;44.738;20.394;2022-07-06T05:29:50;23.00;89.00
57410;DHT22;46044;44.738;20.394;2022-07-06T05:32:16;23.00;89.00
57410;DHT22;46044;44.738;20.394;2022-07-06T05:34:41;23.00;89.00
57410;DHT22;46044;44.738;20.394;2022-07-06T05:37:08;23.00;89.00
57410;DHT22;46044;44.738;20.394;2022-07-06T05:39:34;23.00;88.00
57410;DHT22;46044;44.738;20.394;2022-07-06T05:41:59;23.00;88.00
57410;DHT22;46044;44.738;20.394;2022-07-06T05:44:25;23.00;87.00
57410;DHT22;46044;44.738;20.394;2022-07-06T05:46:51;23.00;87.00
57410;DHT22;46044;44.738;20.394;2022-07-06T05:49:18;23.00;89.00
57410;DHT22;46044;44.738;20.394;2022-07-06T05:52:02;23.00;90.00
57410;DHT22;46044;44.738;20.394;2022-07-06T05:54:28;23.00;90.00
57410;DHT22;46044;44.738;20.394;2022-07-06T05:56:55;23.00;91.00
57410;DHT22;46044;44.738;20.394;2022-07-06T05:59:20;23.00;91.00
57410;DHT22;46044;44.738;20.394;2022-07-06T06:01:46;23.00;90.00
57410;DHT22;46044;44.738;20.394;2022-07-06T06:04:12;23.00;90.00
57410;DHT22;46044;44.738;20.394;2022-07-06T06:06:37;23.00;90.00
57410;DHT22;46044;44.738;20.394;2022-07-06T06:09:03;23.00;89.00
57410;DHT22;46044;44.738;20.394;2022-07-06T06:11:30;24.00;89.00
57410;DHT22;46044;44.738;20.394;2022-07-06T06:13:56;24.00;88.00
57410;DHT22;46044;44.738;20.394;2022-07-06T06:16:21;24.00;87.00
57410;DHT22;46044;44.738;20.394;2022-07-06T06:18:47;24.00;85.00
57410;DHT22;46044;44.738;20.394;2022-07-06T06:21:12;23.00;85.00
57410;DHT22;46044;44.738;20.394;2022-07-06T06:23:38;23.00;85.00
57410;DHT22;46044;44.738;20.394;2022-07-06T06:26:04;23.00;87.00
57410;DHT22;46044;44.738;20.394;2022-07-06T06:28:30;23.00;86.00
57410;DHT22;46044;44.738;20.394;2022-07-06T06:30:55;23.00;87.00
57410;DHT22;46044;44.738;20.394;2022-07-06T06:33:21;24.00;84.00
57410;DHT22;46044;44.738;20.394;2022-07-06T06:35:49;24.00;84.00
57410;DHT22;46044;44.738;20.394;2022-07-06T06:38:19;24.00;83.00
57410;DHT22;46044;44.738;20.394;2022-07-06T06:40:45;24.00;82.00
57410;DHT22;46044;44.738;20.394;2022-07-06T06:43:11;24.00;82.00
57410;DHT22;46044;44.738;20.394;2022-07-06T06:45:38;24.00;81.00
57410;DHT22;46044;44.738;20.394;2022-07-06T06:48:04;24.00;82.00
57410;DHT22;46044;44.738;20.394;2022-07-06T06:50:30;24.00;82.00
57410;DHT22;46044;44.738;20.394;2022-07-06T06:52:59;24.00;80.00
57410;DHT22;46044;44.738;20.394;2022-07-06T06:55:25;24.00;79.00
57410;DHT22;46044;44.738;20.394;2022-07-06T06:57:51;24.00;78.00
57410;DHT22;46044;44.738;20.394;2022-07-06T07:00:17;25.00;78.00
57410;DHT22;46044;44.738;20.394;2022-07-06T07:02:43;27.00;70.00
57410;DHT22;46044;44.738;20.394;2022-07-06T07:05:09;28.00;68.00
57410;DHT22;46044;44.738;20.394;2022-07-06T07:07:37;27.00;67.00
57410;DHT22;46044;44.738;20.394;2022-07-06T07:10:04;27.00;68.00
57410;DHT22;46044;44.738;20.394;2022-07-06T07:12:30;26.00;69.00
57410;DHT22;46044;44.738;20.394;2022-07-06T07:14:56;26.00;71.00
57410;DHT22;46044;44.738;20.394;2022-07-06T07:17:22;25.00;71.00
57410;DHT22;46044;44.738;20.394;2022-07-06T07:19:48;25.00;72.00
57410;DHT22;46044;44.738;20.394;2022-07-06T07:22:14;25.00;73.00
57410;DHT22;46044;44.738;20.394;2022-07-06T07:24:39;25.00;74.00
57410;DHT22;46044;44.738;20.394;2022-07-06T07:27:05;25.00;74.00
57410;DHT22;46044;44.738;20.394;2022-07-06T07:29:31;26.00;74.00
57410;DHT22;46044;44.738;20.394;2022-07-06T07:31:56;26.00;72.00
57410;DHT22;46044;44.738;20.394;2022-07-06T07:34:22;27.00;70.00
57410;DHT22;46044;44.738;20.394;2022-07-06T07:36:48;28.00;67.00
57410;DHT22;46044;44.738;20.394;2022-07-06T07:39:14;29.00;62.00
57410;DHT22;46044;44.738;20.394;2022-07-06T07:41:39;28.00;62.00
57410;DHT22;46044;44.738;20.394;2022-07-06T07:44:11;27.00;64.00
57410;DHT22;46044;44.738;20.394;2022-07-06T07:46:37;27.00;65.00
57410;DHT22;46044;44.738;20.394;2022-07-06T07:49:02;26.00;67.00
57410;DHT22;46044;44.738;20.394;2022-07-06T07:51:28;26.00;69.00
57410;DHT22;46044;44.738;20.394;2022-07-06T07:54:07;26.00;70.00
57410;DHT22;46044;44.738;20.394;2022-07-06T07:56:36;25.00;70.00
57410;DHT22;46044;44.738;20.394;2022-07-06T07:59:01;25.00;69.00
57410;DHT22;46044;44.738;20.394;2022-07-06T08:01:27;25.00;69.00
57410;DHT22;46044;44.738;20.394;2022-07-06T08:03:55;25.00;68.00
57410;DHT22;46044;44.738;20.394;2022-07-06T08:06:21;25.00;68.00
57410;DHT22;46044;44.738;20.394;2022-07-06T08:08:47;25.00;70.00
57410;DHT22;46044;44.738;20.394;2022-07-06T08:11:13;25.00;69.00
57410;DHT22;46044;44.738;20.394;2022-07-06T08:13:38;25.00;71.00
57410;DHT22;46044;44.738;20.394;2022-07-06T08:16:04;25.00;71.00
57410;DHT22;46044;44.738;20.394;2022-07-06T08:18:30;25.00;70.00
57410;DHT22;46044;44.738;20.394;2022-07-06T08:20:56;26.00;68.00
57410;DHT22;46044;44.738;20.394;2022-07-06T08:23:22;25.00;68.00
57410;DHT22;46044;44.738;20.394;2022-07-06T08:25:48;26.00;68.00
57410;DHT22;46044;44.738;20.394;2022-07-06T08:28:14;26.00;67.00
57410;DHT22;46044;44.738;20.394;2022-07-06T08:30:40;26.00;68.00
57410;DHT22;46044;44.738;20.394;2022-07-06T08:33:05;26.00;68.00
57410;DHT22;46044;44.738;20.394;2022-07-06T08:35:31;26.00;67.00
57410;DHT22;46044;44.738;20.394;2022-07-06T08:37:57;26.00;67.00
57410;DHT22;46044;44.738;20.394;2022-07-06T08:40:27;26.00;67.00
57410;DHT22;46044;44.738;20.394;2022-07-06T08:42:56;26.00;65.00
57410;DHT22;46044;44.738;20.394;2022-07-06T08:45:25;26.00;66.00
57410;DHT22;46044;44.738;20.394;2022-07-06T08:47:53;26.00;66.00
57410;DHT22;46044;44.738;20.394;2022-07-06T08:50:20;26.00;67.00
57410;DHT22;46044;44.738;20.394;2022-07-06T08:52:48;26.00;66.00
57410;DHT22;46044;44.738;20.394;2022-07-06T08:55:15;26.00;66.00
57410;DHT22;46044;44.738;20.394;2022-07-06T08:57:46;26.00;66.00
57410;DHT22;46044;44.738;20.394;2022-07-06T09:00:15;27.00;64.00
57410;DHT22;46044;44.738;20.394;2022-07-06T09:02:47;27.00;64.00
57410;DHT22;46044;44.738;20.394;2022-07-06T09:05:17;27.00;63.00
57410;DHT22;46044;44.738;20.394;2022-07-06T09:07:45;27.00;63.00
57410;DHT22;46044;44.738;20.394;2022-07-06T09:10:15;26.00;63.00
57410;DHT22;46044;44.738;20.394;2022-07-06T09:12:42;26.00;64.00
57410;DHT22;46044;44.738;20.394;2022-07-06T09:15:11;26.00;64.00
57410;DHT22;46044;44.738;20.394;2022-07-06T09:17:41;27.00;63.00
57410;DHT22;46044;44.738;20.394;2022-07-06T09:20:09;27.00;63.00
57410;DHT22;46044;44.738;20.394;2022-07-06T09:22:35;27.00;63.00
57410;DHT22;46044;44.738;20.394;2022-07-06T09:25:12;27.00;63.00
57410;DHT22;46044;44.738;20.394;2022-07-06T09:27:45;27.00;62.00
57410;DHT22;46044;44.738;20.394;2022-07-06T09:30:20;27.00;62.00
57410;DHT22;46044;44.738;20.394;2022-07-06T09:32:51;27.00;62.00
57410;DHT22;46044;44.738;20.394;2022-07-06T09:35:29;27.00;61.00
57410;DHT22;46044;44.738;20.394;2022-07-06T09:38:13;27.00;61.00
57410;DHT22;46044;44.738;20.394;2022-07-06T09:40:44;27.00;60.00
57410;DHT22;46044;44.738;20.394;2022-07-06T09:43:16;27.00;62.00
57410;DHT22;46044;44.738;20.394;2022-07-06T09:46:00;27.00;60.00
57410;DHT22;46044;44.738;20.394;2022-07-06T09:48:27;27.00;60.00
57410;DHT22;46044;44.738;20.394;2022-07-06T09:50:57;27.00;60.00
57410;DHT22;46044;44.738;20.394;2022-07-06T09:53:25;28.00;61.00
57410;DHT22;46044;44.738;20.394;2022-07-06T09:55:53;28.00;60.00
57410;DHT22;46044;44.738;20.394;2022-07-06T09:58:19;28.00;59.00
57410;DHT22;46044;44.738;20.394;2022-07-06T10:00:46;27.00;59.00
57410;DHT22;46044;44.738;20.394;2022-07-06T10:03:13;28.00;60.00
57410;DHT22;46044;44.738;20.394;2022-07-06T10:05:41;28.00;60.00
57410;DHT22;46044;44.738;20.394;2022-07-06T10:08:08;28.00;58.00
57410;DHT22;46044;44.738;20.394;2022-07-06T10:10:39;28.00;59.00
57410;DHT22;46044;44.738;20.394;2022-07-06T10:13:05;28.00;58.00
57410;DHT22;46044;44.738;20.394;2022-07-06T10:15:36;28.00;57.00
57410;DHT22;46044;44.738;20.394;2022-07-06T10:18:06;28.00;57.00
57410;DHT22;46044;44.738;20.394;2022-07-06T10:20:34;28.00;56.00
57410;DHT22;46044;44.738;20.394;2022-07-06T10:23:03;28.00;56.00
57410;DHT22;46044;44.738;20.394;2022-07-06T10:25:29;28.00;55.00
57410;DHT22;46044;44.738;20.394;2022-07-06T10:27:57;28.00;56.00
57410;DHT22;46044;44.738;20.394;2022-07-06T10:30:23;28.00;56.00
57410;DHT22;46044;44.738;20.394;2022-07-06T10:32:50;28.00;56.00
57410;DHT22;46044;44.738;20.394;2022-07-06T10:35:18;28.00;57.00
57410;DHT22;46044;44.738;20.394;2022-07-06T10:37:44;28.00;56.00
57410;DHT22;46044;44.738;20.394;2022-07-06T10:40:13;28.00;57.00
57410;DHT22;46044;44.738;20.394;2022-07-06T10:42:58;28.00;57.00
57410;DHT22;46044;44.738;20.394;2022-07-06T10:53:13;28.00;56.00
57410;DHT22;46044;44.738;20.394;2022-07-06T10:55:43;28.00;56.00
57410;DHT22;46044;44.738;20.394;2022-07-06T10:58:09;28.00;57.00
57410;DHT22;46044;44.738;20.394;2022-07-06T11:00:54;28.00;57.00
57410;DHT22;46044;44.738;20.394;2022-07-06T11:06:20;28.00;56.00
57410;DHT22;46044;44.738;20.394;2022-07-06T11:08:47;29.00;56.00
57410;DHT22;46044;44.738;20.394;2022-07-06T11:16:19;29.00;55.00
57410;DHT22;46044;44.738;20.394;2022-07-06T11:18:47;29.00;55.00
57410;DHT22;46044;44.738;20.394;2022-07-06T11:21:27;29.00;55.00
57410;DHT22;46044;44.738;20.394;2022-07-06T11:23:57;29.00;55.00
57410;DHT22;46044;44.738;20.394;2022-07-06T11:26:23;29.00;55.00
57410;DHT22;46044;44.738;20.394;2022-07-06T11:28:51;28.00;55.00
57410;DHT22;46044;44.738;20.394;2022-07-06T11:31:17;29.00;56.00
57410;DHT22;46044;44.738;20.394;2022-07-06T11:33:47;29.00;55.00
57410;DHT22;46044;44.738;20.394;2022-07-06T11:36:21;29.00;55.00
57410;DHT22;46044;44.738;20.394;2022-07-06T11:38:49;29.00;54.00
57410;DHT22;46044;44.738;20.394;2022-07-06T11:41:16;29.00;54.00
57410;DHT22;46044;44.738;20.394;2022-07-06T11:43:43;29.00;55.00
57410;DHT22;46044;44.738;20.394;2022-07-06T11:46:29;29.00;55.00
57410;DHT22;46044;44.738;20.394;2022-07-06T11:49:00;29.00;54.00
57410;DHT22;46044;44.738;20.394;2022-07-06T11:51:28;29.00;54.00
57410;DHT22;46044;44.738;20.394;2022-07-06T11:53:57;29.00;54.00
57410;DHT22;46044;44.738;20.394;2022-07-06T11:56:24;29.00;54.00
57410;DHT22;46044;44.738;20.394;2022-07-06T11:58:58;29.00;53.00
57410;DHT22;46044;44.738;20.394;2022-07-06T12:01:25;29.00;54.00
57410;DHT22;46044;44.738;20.394;2022-07-06T12:03:52;29.00;54.00
57410;DHT22;46044;44.738;20.394;2022-07-06T12:06:22;29.00;54.00
57410;DHT22;46044;44.738;20.394;2022-07-06T12:08:53;29.00;52.00
57410;DHT22;46044;44.738;20.394;2022-07-06T12:11:27;29.00;52.00
57410;DHT22;46044;44.738;20.394;2022-07-06T12:13:56;29.00;54.00
57410;DHT22;46044;44.738;20.394;2022-07-06T12:16:32;28.00;52.00
57410;DHT22;46044;44.738;20.394;2022-07-06T12:19:00;28.00;54.00
57410;DHT22;46044;44.738;20.394;2022-07-06T12:21:26;28.00;54.00
57410;DHT22;46044;44.738;20.394;2022-07-06T12:23:53;28.00;53.00
57410;DHT22;46044;44.738;20.394;2022-07-06T12:26:21;28.00;54.00
57410;DHT22;46044;44.738;20.394;2022-07-06T12:29:09;28.00;54.00
57410;DHT22;46044;44.738;20.394;2022-07-06T12:31:39;28.00;53.00
57410;DHT22;46044;44.738;20.394;2022-07-06T12:34:14;28.00;54.00
57410;DHT22;46044;44.738;20.394;2022-07-06T12:36:48;29.00;54.00
57410;DHT22;46044;44.738;20.394;2022-07-06T12:39:18;29.00;54.00
57410;DHT22;46044;44.738;20.394;2022-07-06T12:44:24;28.00;53.00
57410;DHT22;46044;44.738;20.394;2022-07-06T12:47:10;28.00;52.00
57410;DHT22;46044;44.738;20.394;2022-07-06T12:49:37;28.00;54.00
57410;DHT22;46044;44.738;20.394;2022-07-06T12:54:34;29.00;54.00
57410;DHT22;46044;44.738;20.394;2022-07-06T12:59:26;29.00;52.00
57410;DHT22;46044;44.738;20.394;2022-07-06T13:01:55;29.00;51.00
57410;DHT22;46044;44.738;20.394;2022-07-06T13:04:24;29.00;51.00
57410;DHT22;46044;44.738;20.394;2022-07-06T13:06:49;29.00;52.00
57410;DHT22;46044;44.738;20.394;2022-07-06T13:09:16;29.00;52.00
57410;DHT22;46044;44.738;20.394;2022-07-06T13:11:42;29.00;52.00
57410;DHT22;46044;44.738;20.394;2022-07-06T13:14:08;29.00;52.00
57410;DHT22;46044;44.738;20.394;2022-07-06T13:16:35;29.00;53.00
57410;DHT22;46044;44.738;20.394;2022-07-06T13:19:01;29.00;53.00
57410;DHT22;46044;44.738;20.394;2022-07-06T13:21:27;29.00;51.00
57410;DHT22;46044;44.738;20.394;2022-07-06T13:23:53;29.00;52.00
57410;DHT22;46044;44.738;20.394;2022-07-06T13:26:19;29.00;52.00
57410;DHT22;46044;44.738;20.394;2022-07-06T13:28:44;29.00;52.00
57410;DHT22;46044;44.738;20.394;2022-07-06T13:31:11;29.00;50.00
57410;DHT22;46044;44.738;20.394;2022-07-06T13:33:37;29.00;50.00
57410;DHT22;46044;44.738;20.394;2022-07-06T13:36:03;29.00;50.00
57410;DHT22;46044;44.738;20.394;2022-07-06T13:38:29;29.00;49.00
57410;DHT22;46044;44.738;20.394;2022-07-06T13:40:56;29.00;50.00
57410;DHT22;46044;44.738;20.394;2022-07-06T13:43:22;30.00;49.00
57410;DHT22;46044;44.738;20.394;2022-07-06T13:45:48;30.00;49.00
57410;DHT22;46044;44.738;20.394;2022-07-06T13:48:13;30.00;49.00
57410;DHT22;46044;44.738;20.394;2022-07-06T13:50:40;30.00;48.00
57410;DHT22;46044;44.738;20.394;2022-07-06T13:53:05;29.00;49.00
57410;DHT22;46044;44.738;20.394;2022-07-06T13:55:31;29.00;49.00
57410;DHT22;46044;44.738;20.394;2022-07-06T13:57:59;29.00;50.00
57410;DHT22;46044;44.738;20.394;2022-07-06T14:00:25;29.00;51.00
57410;DHT22;46044;44.738;20.394;2022-07-06T14:02:51;29.00;50.00
57410;DHT22;46044;44.738;20.394;2022-07-06T14:05:17;29.00;50.00
57410;DHT22;46044;44.738;20.394;2022-07-06T14:07:43;29.00;50.00
57410;DHT22;46044;44.738;20.394;2022-07-06T14:10:08;29.00;51.00
57410;DHT22;46044;44.738;20.394;2022-07-06T14:12:34;29.00;50.00
57410;DHT22;46044;44.738;20.394;2022-07-06T14:15:00;29.00;50.00
57410;DHT22;46044;44.738;20.394;2022-07-06T14:17:26;29.00;51.00
57410;DHT22;46044;44.738;20.394;2022-07-06T14:19:52;29.00;50.00
57410;DHT22;46044;44.738;20.394;2022-07-06T14:22:17;29.00;51.00
57410;DHT22;46044;44.738;20.394;2022-07-06T14:24:43;29.00;50.00
57410;DHT22;46044;44.738;20.394;2022-07-06T14:27:09;29.00;51.00
57410;DHT22;46044;44.738;20.394;2022-07-06T14:29:35;29.00;52.00
57410;DHT22;46044;44.738;20.394;2022-07-06T14:32:00;29.00;53.00
57410;DHT22;46044;44.738;20.394;2022-07-06T14:34:26;29.00;53.00
57410;DHT22;46044;44.738;20.394;2022-07-06T14:36:52;29.00;52.00
57410;DHT22;46044;44.738;20.394;2022-07-06T14:39:17;29.00;52.00
57410;DHT22;46044;44.738;20.394;2022-07-06T14:41:43;29.00;51.00
57410;DHT22;46044;44.738;20.394;2022-07-06T14:44:09;29.00;51.00
57410;DHT22;46044;44.738;20.394;2022-07-06T14:46:34;29.00;50.00
57410;DHT22;46044;44.738;20.394;2022-07-06T14:49:01;29.00;51.00
57410;DHT22;46044;44.738;20.394;2022-07-06T14:51:27;29.00;51.00
57410;DHT22;46044;44.738;20.394;2022-07-06T14:53:52;29.00;53.00
57410;DHT22;46044;44.738;20.394;2022-07-06T14:56:19;29.00;53.00
57410;DHT22;46044;44.738;20.394;2022-07-06T14:58:44;28.00;52.00
57410;DHT22;46044;44.738;20.394;2022-07-06T15:01:10;28.00;53.00
57410;DHT22;46044;44.738;20.394;2022-07-06T15:03:36;28.00;54.00
57410;DHT22;46044;44.738;20.394;2022-07-06T15:06:02;28.00;54.00
57410;DHT22;46044;44.738;20.394;2022-07-06T15:08:28;28.00;54.00
57410;DHT22;46044;44.738;20.394;2022-07-06T15:10:54;28.00;54.00
57410;DHT22;46044;44.738;20.394;2022-07-06T15:13:20;28.00;53.00
57410;DHT22;46044;44.738;20.394;2022-07-06T15:15:46;28.00;53.00
57410;DHT22;46044;44.738;20.394;2022-07-06T15:18:12;28.00;53.00
57410;DHT22;46044;44.738;20.394;2022-07-06T15:20:37;28.00;53.00
57410;DHT22;46044;44.738;20.394;2022-07-06T15:23:03;28.00;54.00
57410;DHT22;46044;44.738;20.394;2022-07-06T15:25:29;28.00;54.00
57410;DHT22;46044;44.738;20.394;2022-07-06T15:27:55;28.00;55.00
57410;DHT22;46044;44.738;20.394;2022-07-06T15:30:21;28.00;54.00
57410;DHT22;46044;44.738;20.394;2022-07-06T15:32:48;28.00;54.00
57410;DHT22;46044;44.738;20.394;2022-07-06T15:35:14;28.00;54.00
57410;DHT22;46044;44.738;20.394;2022-07-06T15:37:41;28.00;54.00